createdAt,value
2015-09-19T00:00:06.362Z,96138
2015-09-19T00:00:24.752Z,96138
2015-09-19T00:00:43.114Z,96144
2015-09-19T00:01:01.535Z,96140
2015-09-19T00:01:19.910Z,96146
2015-09-19T00:01:38.303Z,96140
2015-09-19T00:01:56.694Z,96138
2015-09-19T00:02:15.069Z,96135
2015-09-19T00:02:33.430Z,96140
2015-09-19T00:02:51.852Z,96143
2015-09-19T00:03:10.211Z,96141
2015-09-19T00:03:28.586Z,96141
2015-09-19T00:03:46.979Z,96138
2015-09-19T00:04:05.354Z,96141
2015-09-19T00:04:23.729Z,96143
2015-09-19T00:04:42.137Z,96141
2015-09-19T00:05:00.497Z,96140
2015-09-19T00:05:18.903Z,96140
2015-09-19T00:05:37.264Z,96140
2015-09-19T00:05:55.655Z,96143
2015-09-19T00:06:14.030Z,96143
2015-09-19T00:06:32.420Z,96140
2015-09-19T00:06:50.844Z,96140
2015-09-19T00:07:09.219Z,96146
2015-09-19T00:07:27.594Z,96140
2015-09-19T00:07:45.971Z,96149
2015-09-19T00:08:04.362Z,96141
2015-09-19T00:08:22.753Z,96143
2015-09-19T00:08:41.143Z,96149
2015-09-19T00:08:59.505Z,96141
2015-09-19T00:09:17.895Z,96146
2015-09-19T00:09:36.270Z,96143
2015-09-19T00:09:54.678Z,96143
2015-09-19T00:10:13.053Z,96152
2015-09-19T00:10:31.428Z,96141
2015-09-19T00:10:49.836Z,96152
2015-09-19T00:11:08.258Z,96144
2015-09-19T00:11:26.586Z,96146
2015-09-19T00:11:44.976Z,96147
2015-09-19T00:12:03.370Z,96150
2015-09-19T00:12:21.776Z,96146
2015-09-19T00:12:40.136Z,96141
2015-09-19T00:12:58.528Z,96149
2015-09-19T00:13:16.919Z,96152
2015-09-19T00:13:35.309Z,96146
2015-09-19T00:13:53.686Z,96149
2015-09-19T00:14:12.061Z,96143
2015-09-19T00:14:30.436Z,96145
2015-09-19T00:14:48.813Z,96137
2015-09-19T00:15:07.048Z,96143
2015-09-19T00:15:25.407Z,96140
2015-09-19T00:15:43.798Z,96145
2015-09-19T00:16:02.205Z,96140
2015-09-19T00:16:20.611Z,96152
2015-09-19T00:16:38.986Z,96143
2015-09-19T00:16:57.364Z,96155
2015-09-19T00:17:15.755Z,96141
2015-09-19T00:17:34.208Z,96138
2015-09-19T00:17:52.600Z,96146
2015-09-19T00:18:10.975Z,96138
2015-09-19T00:18:29.350Z,96144
2015-09-19T00:18:47.725Z,96141
2015-09-19T00:19:06.134Z,96140
2015-09-19T00:19:24.493Z,96140
2015-09-19T00:19:42.884Z,96123
2015-09-19T00:20:01.260Z,96145
2015-09-19T00:20:19.651Z,96137
2015-09-19T00:20:38.041Z,96134
2015-09-19T00:20:56.434Z,96137
2015-09-19T00:21:14.824Z,96137
2015-09-19T00:21:33.199Z,96143
2015-09-19T00:21:51.559Z,96140
2015-09-19T00:22:09.937Z,96143
2015-09-19T00:22:28.343Z,96141
2015-09-19T00:22:46.718Z,96141
2015-09-19T00:23:05.157Z,96141
2015-09-19T00:23:23.563Z,96138
2015-09-19T00:23:41.797Z,96141
2015-09-19T00:24:00.157Z,96138
2015-09-19T00:24:18.549Z,96143
2015-09-19T00:24:36.940Z,96152
2015-09-19T00:24:55.299Z,96141
2015-09-19T00:25:13.676Z,96141
2015-09-19T00:25:32.067Z,96147
2015-09-19T00:25:50.426Z,96138
2015-09-19T00:26:08.803Z,96138
2015-09-19T00:26:27.194Z,96143
2015-09-19T00:26:45.584Z,96138
2015-09-19T00:27:03.975Z,96140
2015-09-19T00:27:22.369Z,96138
2015-09-19T00:27:40.087Z,96141
2015-09-19T00:27:58.462Z,96141
2015-09-19T00:28:16.823Z,96141
2015-09-19T00:28:35.198Z,96143
2015-09-19T00:28:53.573Z,96135
2015-09-19T00:29:11.950Z,96138
2015-09-19T00:29:29.700Z,96136
2015-09-19T00:29:48.090Z,96133
2015-09-19T00:30:06.481Z,96149
2015-09-19T00:30:24.858Z,96135
2015-09-19T00:30:43.264Z,96138
2015-09-19T00:31:01.624Z,96133
2015-09-19T00:31:20.032Z,96138
2015-09-19T00:31:38.423Z,96144
2015-09-19T00:31:56.923Z,96141
2015-09-19T00:32:15.362Z,96135
2015-09-19T00:32:33.753Z,96141
2015-09-19T00:32:52.128Z,96135
2015-09-19T00:33:10.518Z,96133
2015-09-19T00:33:28.739Z,96132
2015-09-19T00:33:47.130Z,96130
2015-09-19T00:34:05.489Z,96132
2015-09-19T00:34:23.866Z,96132
2015-09-19T00:34:42.257Z,96138
2015-09-19T00:35:00.647Z,96138
2015-09-19T00:35:19.024Z,96133
2015-09-19T00:35:37.399Z,96131
2015-09-19T00:35:55.774Z,96128
2015-09-19T00:36:14.165Z,96125
2015-09-19T00:36:32.573Z,96131
2015-09-19T00:36:50.933Z,96136
2015-09-19T00:37:09.370Z,96134
2015-09-19T00:37:27.747Z,96131
2015-09-19T00:37:46.106Z,96139
2015-09-19T00:38:04.481Z,96128
2015-09-19T00:38:22.858Z,96134
2015-09-19T00:38:41.233Z,96131
2015-09-19T00:38:59.624Z,96126
2015-09-19T00:39:17.999Z,96131
2015-09-19T00:39:36.453Z,96140
2015-09-19T00:39:54.844Z,96131
2015-09-19T00:40:13.281Z,96134
2015-09-19T00:40:31.628Z,96136
2015-09-19T00:40:50.003Z,96134
2015-09-19T00:41:08.394Z,96139
2015-09-19T00:41:26.754Z,96142
2015-09-19T00:41:45.145Z,96134
2015-09-19T00:42:03.551Z,96139
2015-09-19T00:42:21.926Z,96145
2015-09-19T00:43:01.772Z,96134
2015-09-19T00:43:20.147Z,96134
2015-09-19T00:43:38.524Z,96131
2015-09-19T00:43:56.930Z,96145
2015-09-19T00:44:15.321Z,96137
2015-09-19T00:44:33.699Z,96140
2015-09-19T00:44:52.058Z,96143
2015-09-19T00:45:10.449Z,96143
2015-09-19T00:45:28.826Z,96131
2015-09-19T00:45:47.232Z,96131
2015-09-19T00:46:05.607Z,96139
2015-09-19T00:46:23.997Z,96131
2015-09-19T00:46:42.415Z,96140
2015-09-19T00:47:00.822Z,96128
2015-09-19T00:47:19.197Z,96131
2015-09-19T00:47:37.650Z,96128
2015-09-19T00:47:56.025Z,96137
2015-09-19T00:48:14.416Z,96142
2015-09-19T00:48:32.839Z,96134
2015-09-19T00:48:51.229Z,96131
2015-09-19T00:49:09.620Z,96140
2015-09-19T00:49:27.995Z,96134
2015-09-19T00:49:46.401Z,96145
2015-09-19T00:50:04.776Z,96137
2015-09-19T00:50:23.167Z,96134
2015-09-19T00:50:41.590Z,96140
2015-09-19T00:50:59.980Z,96143
2015-09-19T00:51:18.371Z,96140
2015-09-19T00:51:36.781Z,96142
2015-09-19T00:51:55.156Z,96134
2015-09-19T00:52:13.546Z,96148
2015-09-19T00:52:31.906Z,96143
2015-09-19T00:52:50.346Z,96132
2015-09-19T00:53:08.721Z,96132
2015-09-19T00:53:27.111Z,96143
2015-09-19T00:53:45.504Z,96135
2015-09-19T00:54:03.879Z,96130
2015-09-19T00:54:22.254Z,96133
2015-09-19T00:54:40.647Z,96136
2015-09-19T00:54:59.053Z,96144
2015-09-19T00:55:16.788Z,96133
2015-09-19T00:55:35.178Z,96136
2015-09-19T00:55:53.557Z,96127
2015-09-19T00:56:11.947Z,96135
2015-09-19T00:56:30.338Z,96132
2015-09-19T00:56:48.720Z,96135
2015-09-19T00:57:07.095Z,96124
2015-09-19T00:57:25.486Z,96130
2015-09-19T00:57:43.884Z,96133
2015-09-19T00:58:02.291Z,96125
2015-09-19T00:58:20.666Z,96127
2015-09-19T00:58:39.056Z,96133
2015-09-19T00:58:57.439Z,96119
2015-09-19T00:59:15.814Z,96124
2015-09-19T00:59:34.205Z,96127
2015-09-19T00:59:52.572Z,96122
2015-09-19T01:00:10.932Z,96124
2015-09-19T01:00:29.338Z,96127
2015-09-19T01:00:47.735Z,96127
2015-09-19T01:01:06.110Z,96122
2015-09-19T01:01:24.470Z,96122
2015-09-19T01:01:42.860Z,96122
2015-09-19T01:02:01.256Z,96122
2015-09-19T01:02:19.631Z,96125
2015-09-19T01:02:38.006Z,96130
2015-09-19T01:02:56.401Z,96122
2015-09-19T01:03:14.760Z,96125
2015-09-19T01:03:33.151Z,96126
2015-09-19T01:03:51.530Z,96128
2015-09-19T01:04:09.889Z,96120
2015-09-19T01:04:28.264Z,96133
2015-09-19T01:04:46.670Z,96114
2015-09-19T01:05:05.065Z,96122
2015-09-19T01:05:23.440Z,96122
2015-09-19T01:05:41.831Z,96125
2015-09-19T01:06:00.225Z,96128
2015-09-19T01:06:18.616Z,96114
2015-09-19T01:06:37.006Z,96114
2015-09-19T01:06:55.384Z,96120
2015-09-19T01:07:13.103Z,96122
2015-09-19T01:07:31.509Z,96119
2015-09-19T01:07:49.869Z,96122
2015-09-19T01:08:08.247Z,96120
2015-09-19T01:08:26.637Z,96120
2015-09-19T01:08:45.012Z,96120
2015-09-19T01:09:03.389Z,96109
2015-09-19T01:09:21.796Z,96122
2015-09-19T01:09:40.139Z,96114
2015-09-19T01:09:58.533Z,96116
2015-09-19T01:10:16.908Z,96122
2015-09-19T01:10:35.283Z,96122
2015-09-19T01:10:53.658Z,96128
2015-09-19T01:11:12.036Z,96119
2015-09-19T01:11:30.427Z,96122
2015-09-19T01:11:48.786Z,96125
2015-09-19T01:12:07.147Z,96120
2015-09-19T01:12:25.538Z,96119
2015-09-19T01:12:43.897Z,96114
2015-09-19T01:13:02.307Z,96125
2015-09-19T01:13:20.697Z,96117
2015-09-19T01:13:39.088Z,96112
2015-09-19T01:13:57.463Z,96120
2015-09-19T01:14:15.856Z,96115
2015-09-19T01:14:34.231Z,96112
2015-09-19T01:14:52.621Z,96125
2015-09-19T01:15:10.998Z,96122
2015-09-19T01:15:29.389Z,96122
2015-09-19T01:15:47.779Z,96133
2015-09-19T01:16:06.141Z,96128
2015-09-19T01:16:24.531Z,96117
2015-09-19T01:16:42.922Z,96123
2015-09-19T01:17:01.313Z,96128
2015-09-19T01:17:19.690Z,96111
2015-09-19T01:17:38.080Z,96114
2015-09-19T01:17:56.440Z,96128
2015-09-19T01:18:14.817Z,96123
2015-09-19T01:18:33.223Z,96131
2015-09-19T01:18:51.973Z,96116
2015-09-19T01:19:10.584Z,96116
2015-09-19T01:19:29.100Z,96117
2015-09-19T01:19:47.662Z,96117
2015-09-19T01:20:06.116Z,96116
2015-09-19T01:20:24.681Z,96108
2015-09-19T01:20:43.431Z,96125
2015-09-19T01:21:02.009Z,96109
2015-09-19T01:21:20.651Z,96122
2015-09-19T01:21:39.182Z,96117
2015-09-19T01:21:57.916Z,96116
2015-09-19T01:22:16.590Z,96125
2015-09-19T01:22:35.168Z,96125
2015-09-19T01:22:53.825Z,96122
2015-09-19T01:23:12.280Z,96128
2015-09-19T01:23:30.686Z,96128
2015-09-19T01:23:49.280Z,96126
2015-09-19T01:24:08.108Z,96118
2015-09-19T01:24:26.610Z,96117
2015-09-19T01:24:45.344Z,96120
2015-09-19T01:25:03.876Z,96123
2015-09-19T01:25:22.362Z,96128
2015-09-19T01:25:40.674Z,96125
2015-09-19T01:25:59.112Z,96119
2015-09-19T01:26:17.598Z,96124
2015-09-19T01:26:36.380Z,96122
2015-09-19T01:26:55.114Z,96125
2015-09-19T01:27:13.866Z,96128
2015-09-19T01:27:32.272Z,96122
2015-09-19T01:27:50.694Z,96128
2015-09-19T01:28:09.069Z,96122
2015-09-19T01:28:27.712Z,96128
2015-09-19T01:28:46.462Z,96120
2015-09-19T01:29:04.899Z,96123
2015-09-19T01:29:23.307Z,96131
2015-09-19T01:29:41.823Z,96131
2015-09-19T01:30:00.276Z,96131
2015-09-19T01:30:18.809Z,96128
2015-09-19T01:30:37.231Z,96128
2015-09-19T01:30:56.075Z,96131
2015-09-19T01:31:14.575Z,96120
2015-09-19T01:31:33.327Z,96134
2015-09-19T01:31:51.936Z,96120
2015-09-19T01:32:10.483Z,96128
2015-09-19T01:32:28.922Z,96122
2015-09-19T01:32:47.422Z,96125
2015-09-19T01:33:05.984Z,96119
2015-09-19T01:33:24.519Z,96114
2015-09-19T01:33:43.065Z,96114
2015-09-19T01:34:01.472Z,96122
2015-09-19T01:34:19.878Z,96114
2015-09-19T01:34:38.457Z,96114
2015-09-19T01:34:57.035Z,96128
2015-09-19T01:35:15.457Z,96125
2015-09-19T01:35:34.023Z,96111
2015-09-19T01:35:52.382Z,96122
2015-09-19T01:36:10.944Z,96117
2015-09-19T01:36:29.618Z,96120
2015-09-19T01:36:48.103Z,96117
2015-09-19T01:37:06.915Z,96122
2015-09-19T01:37:25.386Z,96119
2015-09-19T01:37:44.105Z,96122
2015-09-19T01:38:02.620Z,96120
2015-09-19T01:38:21.433Z,96123
2015-09-19T01:38:39.857Z,96117
2015-09-19T01:38:58.357Z,96120
2015-09-19T01:39:16.825Z,96118
2015-09-19T01:39:35.295Z,96132
2015-09-19T01:39:53.670Z,96124
2015-09-19T01:40:12.264Z,96119
2015-09-19T01:40:30.782Z,96113
2015-09-19T01:40:49.219Z,96113
2015-09-19T01:41:07.610Z,96124
2015-09-19T01:41:26.188Z,96118
2015-09-19T01:41:44.596Z,96124
2015-09-19T01:42:02.971Z,96121
2015-09-19T01:42:21.502Z,96121
2015-09-19T01:42:39.989Z,96118
2015-09-19T01:42:58.536Z,96124
2015-09-19T01:43:17.114Z,96116
2015-09-19T01:43:35.678Z,96113
2015-09-19T01:43:54.225Z,96121
2015-09-19T01:44:12.631Z,96118
2015-09-19T01:44:31.116Z,96110
2015-09-19T01:44:49.618Z,96121
2015-09-19T01:45:08.383Z,96118
2015-09-19T01:45:26.946Z,96132
2015-09-19T01:45:45.323Z,96121
2015-09-19T01:46:03.682Z,96127
2015-09-19T01:46:22.307Z,96119
2015-09-19T01:46:40.762Z,96124
2015-09-19T01:46:59.403Z,96122
2015-09-19T01:47:17.809Z,96127
2015-09-19T01:47:36.465Z,96124
2015-09-19T01:47:55.108Z,96122
2015-09-19T01:48:13.452Z,96119
2015-09-19T01:48:31.874Z,96122
2015-09-19T01:48:50.627Z,96125
2015-09-19T01:49:09.064Z,96122
2015-09-19T01:49:27.595Z,96117
2015-09-19T01:49:46.221Z,96124
2015-09-19T01:50:04.753Z,96119
2015-09-19T01:50:23.440Z,96119
2015-09-19T01:50:41.942Z,96119
2015-09-19T01:51:00.395Z,96111
2015-09-19T01:51:18.661Z,96121
2015-09-19T01:51:37.270Z,96121
2015-09-19T01:51:55.710Z,96118
2015-09-19T01:52:14.225Z,96115
2015-09-19T01:52:32.600Z,96115
2015-09-19T01:52:50.993Z,96118
2015-09-19T01:53:09.509Z,96129
2015-09-19T01:53:28.071Z,96121
2015-09-19T01:53:46.463Z,96123
2015-09-19T01:54:05.025Z,96121
2015-09-19T01:54:23.588Z,96128
2015-09-19T01:54:42.103Z,96117
2015-09-19T01:55:00.669Z,96125
2015-09-19T01:55:19.231Z,96125
2015-09-19T01:55:37.903Z,96125
2015-09-19T01:55:56.452Z,96123
2015-09-19T01:56:15.015Z,96131
2015-09-19T01:56:33.374Z,96128
2015-09-19T01:56:51.829Z,96126
2015-09-19T01:57:10.454Z,96128
2015-09-19T01:57:28.954Z,96128
2015-09-19T01:57:47.501Z,96126
2015-09-19T01:58:05.862Z,96120
2015-09-19T01:58:24.144Z,96126
2015-09-19T01:58:42.784Z,96121
2015-09-19T01:59:01.286Z,96129
2015-09-19T01:59:19.786Z,96132
2015-09-19T01:59:38.239Z,96126
2015-09-19T01:59:56.897Z,96121
2015-09-19T02:00:15.272Z,96118
2015-09-19T02:00:33.928Z,96126
2015-09-19T02:00:52.617Z,96115
2015-09-19T02:01:10.914Z,96110
2015-09-19T02:01:29.383Z,96118
2015-09-19T02:01:48.008Z,96118
2015-09-19T02:02:06.463Z,96124
2015-09-19T02:02:24.948Z,96115
2015-09-19T02:02:43.526Z,96124
2015-09-19T02:03:02.043Z,96127
2015-09-19T02:03:20.465Z,96116
2015-09-19T02:03:38.934Z,96121
2015-09-19T02:03:57.546Z,96124
2015-09-19T02:04:15.999Z,96115
2015-09-19T02:04:34.406Z,96132
2015-09-19T02:04:52.984Z,96124
2015-09-19T02:05:11.391Z,96119
2015-09-19T02:05:29.672Z,96124
2015-09-19T02:05:48.079Z,96113
2015-09-19T02:06:06.487Z,96116
2015-09-19T02:06:25.252Z,96116
2015-09-19T02:06:43.768Z,96117
2015-09-19T02:07:02.599Z,96117
2015-09-19T02:07:21.115Z,96117
2015-09-19T02:07:39.552Z,96123
2015-09-19T02:07:58.068Z,96123
2015-09-19T02:08:16.506Z,96112
2015-09-19T02:08:34.960Z,96120
2015-09-19T02:08:53.366Z,96119
2015-09-19T02:09:12.024Z,96114
2015-09-19T02:09:30.743Z,96114
2015-09-19T02:09:49.274Z,96116
2015-09-19T02:10:07.745Z,96116
2015-09-19T02:10:26.214Z,96119
2015-09-19T02:10:44.604Z,96122
2015-09-19T02:11:03.214Z,96125
2015-09-19T02:11:21.700Z,96116
2015-09-19T02:11:40.309Z,96106
2015-09-19T02:11:58.716Z,96111
2015-09-19T02:12:17.296Z,96111
2015-09-19T02:12:35.733Z,96114
2015-09-19T02:12:55.077Z,96114
2015-09-19T02:13:13.641Z,96117
2015-09-19T02:13:32.204Z,96112
2015-09-19T02:13:50.579Z,96120
2015-09-19T02:14:09.063Z,96117
2015-09-19T02:14:27.753Z,96120
2015-09-19T02:14:46.393Z,96111
2015-09-19T02:15:04.940Z,96116
2015-09-19T02:15:23.490Z,96121
2015-09-19T02:15:42.068Z,96111
2015-09-19T02:16:00.428Z,96117
2015-09-19T02:16:19.069Z,96111
2015-09-19T02:16:37.507Z,96120
2015-09-19T02:16:55.944Z,96123
2015-09-19T02:17:14.569Z,96112
2015-09-19T02:17:32.931Z,96115
2015-09-19T02:17:51.478Z,96118
2015-09-19T02:18:10.024Z,96121
2015-09-19T02:18:28.558Z,96118
2015-09-19T02:18:47.151Z,96118
2015-09-19T02:19:05.542Z,96128
2015-09-19T02:19:23.997Z,96118
2015-09-19T02:19:42.669Z,96120
2015-09-19T02:20:01.263Z,96117
2015-09-19T02:20:19.654Z,96125
2015-09-19T02:20:38.014Z,96123
2015-09-19T02:20:56.561Z,96128
2015-09-19T02:21:15.045Z,96126
2015-09-19T02:21:33.579Z,96120
2015-09-19T02:21:52.048Z,96120
2015-09-19T02:22:10.704Z,96112
2015-09-19T02:22:29.738Z,96123
2015-09-19T02:22:48.269Z,96112
2015-09-19T02:23:06.863Z,96118
2015-09-19T02:23:25.598Z,96118
2015-09-19T02:23:44.020Z,96118
2015-09-19T02:24:02.832Z,96118
2015-09-19T02:24:21.301Z,96118
2015-09-19T02:24:40.132Z,96118
2015-09-19T02:24:58.867Z,96118
2015-09-19T02:25:17.288Z,96121
2015-09-19T02:25:35.650Z,96115
2015-09-19T02:25:54.197Z,96121
2015-09-19T02:26:12.572Z,96124
2015-09-19T02:26:30.948Z,96121
2015-09-19T02:26:49.323Z,96124
2015-09-19T02:27:07.901Z,96124
2015-09-19T02:27:26.573Z,96127
2015-09-19T02:27:45.090Z,96116
2015-09-19T02:28:03.512Z,96120
2015-09-19T02:28:22.247Z,96120
2015-09-19T02:28:40.703Z,96120
2015-09-19T02:28:59.062Z,96123
2015-09-19T02:29:17.546Z,96126
2015-09-19T02:29:35.954Z,96123
2015-09-19T02:29:54.454Z,96115
2015-09-19T02:30:12.922Z,96115
2015-09-19T02:30:31.438Z,96118
2015-09-19T02:30:49.941Z,96120
2015-09-19T02:31:08.300Z,96120
2015-09-19T02:31:26.738Z,96120
2015-09-19T02:31:45.145Z,96128
2015-09-19T02:32:03.708Z,96117
2015-09-19T02:32:22.567Z,96125
2015-09-19T02:32:41.116Z,96126
2015-09-19T02:32:59.803Z,96120
2015-09-19T02:33:18.319Z,96118
2015-09-19T02:33:36.694Z,96126
2015-09-19T02:33:55.290Z,96115
2015-09-19T02:34:13.727Z,96110
2015-09-19T02:34:32.087Z,96112
2015-09-19T02:34:50.480Z,96121
2015-09-19T02:35:08.871Z,96116
2015-09-19T02:35:27.230Z,96110
2015-09-19T02:35:45.622Z,96110
2015-09-19T02:36:04.138Z,96113
2015-09-19T02:36:22.778Z,96115
2015-09-19T02:36:41.216Z,96118
2015-09-19T02:36:59.890Z,96107
2015-09-19T02:37:18.593Z,96117
2015-09-19T02:37:37.061Z,96112
2015-09-19T02:37:55.751Z,96109
2015-09-19T02:38:14.142Z,96107
2015-09-19T02:38:32.626Z,96112
2015-09-19T02:38:51.020Z,96113
2015-09-19T02:39:09.457Z,96118
2015-09-19T02:39:27.957Z,96116
2015-09-19T02:39:46.504Z,96121
2015-09-19T02:40:05.052Z,96113
2015-09-19T02:40:23.411Z,96121
2015-09-19T02:40:41.989Z,96116
2015-09-19T02:41:00.476Z,96108
2015-09-19T02:41:18.913Z,96113
2015-09-19T02:41:37.398Z,96110
2015-09-19T02:41:55.931Z,96113
2015-09-19T02:42:14.321Z,96110
2015-09-19T02:42:32.884Z,96113
2015-09-19T02:42:51.261Z,96124
2015-09-19T02:43:09.683Z,96113
2015-09-19T02:43:28.105Z,96116
2015-09-19T02:43:46.839Z,96110
2015-09-19T02:44:05.341Z,96118
2015-09-19T02:44:23.857Z,96113
2015-09-19T02:44:42.247Z,96116
2015-09-19T02:45:00.702Z,96115
2015-09-19T02:45:19.140Z,96107
2015-09-19T02:45:37.546Z,96121
2015-09-19T02:45:56.126Z,96116
2015-09-19T02:46:14.673Z,96105
2015-09-19T02:46:33.173Z,96113
2015-09-19T02:46:51.923Z,96107
2015-09-19T02:47:10.394Z,96112
2015-09-19T02:47:29.097Z,96118
2015-09-19T02:47:47.628Z,96107
2015-09-19T02:48:06.021Z,96115
2015-09-19T02:48:24.552Z,96110
2015-09-19T02:48:42.927Z,96112
2015-09-19T02:49:01.554Z,96110
2015-09-19T02:49:19.929Z,96110
2015-09-19T02:49:38.695Z,96110
2015-09-19T02:49:56.945Z,96113
2015-09-19T02:50:15.462Z,96118
2015-09-19T02:50:33.962Z,96124
2015-09-19T02:50:52.525Z,96115
2015-09-19T02:51:10.996Z,96115
2015-09-19T02:51:29.418Z,96115
2015-09-19T02:51:47.964Z,96109
2015-09-19T02:52:06.388Z,96115
2015-09-19T02:52:24.826Z,96112
2015-09-19T02:52:43.451Z,96118
2015-09-19T02:53:02.140Z,96112
2015-09-19T02:53:20.625Z,96115
2015-09-19T02:53:38.984Z,96121
2015-09-19T02:53:57.406Z,96112
2015-09-19T02:54:15.877Z,96110
2015-09-19T02:54:34.267Z,96110
2015-09-19T02:54:52.689Z,96113
2015-09-19T02:55:11.237Z,96118
2015-09-19T02:55:29.971Z,96115
2015-09-19T02:55:48.487Z,96124
2015-09-19T02:56:06.927Z,96113
2015-09-19T02:56:25.458Z,96118
2015-09-19T02:56:43.958Z,96113
2015-09-19T02:57:02.755Z,96115
2015-09-19T02:57:21.258Z,96118
2015-09-19T02:57:40.445Z,96118
2015-09-19T02:57:58.836Z,96121
2015-09-19T02:58:17.432Z,96114
2015-09-19T02:58:35.853Z,96120
2015-09-19T02:58:54.244Z,96122
2015-09-19T02:59:12.684Z,96116
2015-09-19T02:59:31.277Z,96114
2015-09-19T02:59:49.824Z,96122
2015-09-19T03:00:08.215Z,96111
2015-09-19T03:00:26.888Z,96116
2015-09-19T03:00:45.325Z,96108
2015-09-19T03:01:03.903Z,96105
2015-09-19T03:01:22.265Z,96116
2015-09-19T03:01:40.640Z,96122
2015-09-19T03:01:59.077Z,96116
2015-09-19T03:02:17.643Z,96113
2015-09-19T03:02:36.205Z,96119
2015-09-19T03:02:54.986Z,96111
2015-09-19T03:03:13.361Z,96111
2015-09-19T03:03:32.066Z,96116
2015-09-19T03:03:50.581Z,96116
2015-09-19T03:04:09.066Z,96120
2015-09-19T03:04:27.647Z,96117
2015-09-19T03:04:46.100Z,96112
2015-09-19T03:05:04.631Z,96120
2015-09-19T03:05:23.071Z,96117
2015-09-19T03:05:41.649Z,96123
2015-09-19T03:06:00.086Z,96117
2015-09-19T03:06:18.492Z,96111
2015-09-19T03:06:36.915Z,96114
2015-09-19T03:06:55.306Z,96125
2015-09-19T03:07:13.665Z,96125
2015-09-19T03:07:32.324Z,96122
2015-09-19T03:07:50.902Z,96117
2015-09-19T03:08:09.308Z,96114
2015-09-19T03:08:27.951Z,96125
2015-09-19T03:08:46.310Z,96115
2015-09-19T03:09:04.763Z,96120
2015-09-19T03:09:23.157Z,96114
2015-09-19T03:09:41.672Z,96114
2015-09-19T03:10:00.125Z,96114
2015-09-19T03:10:18.641Z,96112
2015-09-19T03:10:37.158Z,96114
2015-09-19T03:10:55.626Z,96122
2015-09-19T03:11:14.345Z,96117
2015-09-19T03:11:32.769Z,96120
2015-09-19T03:11:51.285Z,96122
2015-09-19T03:12:09.660Z,96120
2015-09-19T03:12:28.115Z,96112
2015-09-19T03:12:46.677Z,96112
2015-09-19T03:13:05.115Z,96120
2015-09-19T03:13:23.662Z,96120
2015-09-19T03:13:42.211Z,96120
2015-09-19T03:14:00.820Z,96106
2015-09-19T03:14:19.523Z,96114
2015-09-19T03:14:37.994Z,96117
2015-09-19T03:14:56.463Z,96106
2015-09-19T03:15:14.822Z,96117
2015-09-19T03:15:33.371Z,96113
2015-09-19T03:15:51.933Z,96108
2015-09-19T03:16:10.308Z,96102
2015-09-19T03:16:28.699Z,96111
2015-09-19T03:16:47.341Z,96108
2015-09-19T03:17:06.012Z,96113
2015-09-19T03:17:24.450Z,96113
2015-09-19T03:17:43.047Z,96111
2015-09-19T03:18:01.640Z,96114
2015-09-19T03:18:20.094Z,96108
2015-09-19T03:18:38.736Z,96111
2015-09-19T03:18:57.111Z,96108
2015-09-19T03:19:15.814Z,96108
2015-09-19T03:19:34.347Z,96105
2015-09-19T03:19:52.893Z,96108
2015-09-19T03:20:11.268Z,96097
2015-09-19T03:20:29.862Z,96105
2015-09-19T03:20:48.225Z,96111
2015-09-19T03:21:06.631Z,96108
2015-09-19T03:21:25.068Z,96108
2015-09-19T03:21:43.508Z,96105
2015-09-19T03:22:01.914Z,96114
2015-09-19T03:22:20.273Z,96113
2015-09-19T03:22:38.713Z,96102
2015-09-19T03:22:57.275Z,96099
2015-09-19T03:23:15.744Z,96108
2015-09-19T03:23:34.104Z,96108
2015-09-19T03:23:52.823Z,96105
2015-09-19T03:24:11.417Z,96099
2015-09-19T03:24:29.823Z,96108
2015-09-19T03:24:48.311Z,96102
2015-09-19T03:25:06.795Z,96102
2015-09-19T03:25:25.170Z,96103
2015-09-19T03:25:43.640Z,96106
2015-09-19T03:26:02.187Z,96100
2015-09-19T03:26:20.859Z,96100
2015-09-19T03:26:39.312Z,96103
2015-09-19T03:26:57.924Z,96106
2015-09-19T03:27:16.362Z,96104
2015-09-19T03:27:35.112Z,96101
2015-09-19T03:27:53.566Z,96096
2015-09-19T03:28:12.128Z,96101
2015-09-19T03:28:30.488Z,96107
2015-09-19T03:28:48.990Z,96115
2015-09-19T03:29:07.583Z,96095
2015-09-19T03:29:25.943Z,96109
2015-09-19T03:29:44.523Z,96095
2015-09-19T03:30:03.007Z,96087
2015-09-19T03:30:21.476Z,96089
2015-09-19T03:30:39.992Z,96101
2015-09-19T03:30:58.353Z,96104
2015-09-19T03:31:16.837Z,96107
2015-09-19T03:31:35.244Z,96104
2015-09-19T03:31:53.667Z,96104
2015-09-19T03:32:12.136Z,96107
2015-09-19T03:32:30.652Z,96107
2015-09-19T03:32:49.044Z,96104
2015-09-19T03:33:07.388Z,96098
2015-09-19T03:33:25.794Z,96104
2015-09-19T03:33:44.498Z,96101
2015-09-19T03:34:02.906Z,96102
2015-09-19T03:34:21.500Z,96096
2015-09-19T03:34:39.875Z,96099
2015-09-19T03:34:58.470Z,96105
2015-09-19T03:35:17.033Z,96100
2015-09-19T03:35:35.548Z,96097
2015-09-19T03:35:54.129Z,96095
2015-09-19T03:36:12.847Z,96093
2015-09-19T03:36:31.285Z,96098
2015-09-19T03:36:49.894Z,96092
2015-09-19T03:37:08.365Z,96092
2015-09-19T03:37:26.849Z,96101
2015-09-19T03:37:45.443Z,96101
2015-09-19T03:38:03.929Z,96112
2015-09-19T03:38:22.320Z,96103
2015-09-19T03:38:40.773Z,96092
2015-09-19T03:38:59.150Z,96094
2015-09-19T03:39:17.603Z,96097
2015-09-19T03:39:36.135Z,96094
2015-09-19T03:39:54.730Z,96094
2015-09-19T03:40:13.215Z,96103
2015-09-19T03:40:31.762Z,96094
2015-09-19T03:40:50.168Z,96097
2015-09-19T03:41:08.514Z,96086
2015-09-19T03:41:27.232Z,96092
2015-09-19T03:41:45.873Z,96099
2015-09-19T03:42:04.359Z,96100
2015-09-19T03:42:22.875Z,96097
2015-09-19T03:43:00.580Z,96100
2015-09-19T03:43:18.955Z,96094
2015-09-19T03:43:37.408Z,96097
2015-09-19T03:43:56.049Z,96094
2015-09-19T03:44:14.520Z,96100
2015-09-19T03:44:32.926Z,96100
2015-09-19T03:44:51.363Z,96097
2015-09-19T03:45:09.897Z,96103
2015-09-19T03:45:28.318Z,96092
2015-09-19T03:45:46.943Z,96097
2015-09-19T03:46:05.633Z,96089
2015-09-19T03:46:24.164Z,96097
2015-09-19T03:46:42.539Z,96099
2015-09-19T03:47:01.024Z,96094
2015-09-19T03:47:19.400Z,96097
2015-09-19T03:47:37.790Z,96100
2015-09-19T03:47:56.212Z,96097
2015-09-19T03:48:14.746Z,96083
2015-09-19T03:48:33.106Z,96094
2015-09-19T03:48:51.621Z,96100
2015-09-19T03:49:10.030Z,96102
2015-09-19T03:49:28.608Z,96091
2015-09-19T03:49:47.123Z,96089
2015-09-19T03:50:05.483Z,96092
2015-09-19T03:50:23.890Z,96097
2015-09-19T03:50:42.452Z,96086
2015-09-19T03:51:00.937Z,96086
2015-09-19T03:51:19.096Z,96094
2015-09-19T03:51:37.669Z,96089
2015-09-19T03:51:56.216Z,96081
2015-09-19T03:52:14.796Z,96083
2015-09-19T03:52:33.453Z,96092
2015-09-19T03:52:51.656Z,96087
2015-09-19T03:53:10.281Z,96093
2015-09-19T03:53:28.798Z,96092
2015-09-19T03:53:47.298Z,96098
2015-09-19T03:54:05.720Z,96087
2015-09-19T03:54:24.426Z,96081
2015-09-19T03:54:42.801Z,96092
2015-09-19T03:55:01.254Z,96092
2015-09-19T03:55:19.615Z,96086
2015-09-19T03:55:38.459Z,96097
2015-09-19T03:55:57.130Z,96089
2015-09-19T03:56:15.711Z,96095
2015-09-19T03:56:34.132Z,96087
2015-09-19T03:56:52.492Z,96086
2015-09-19T03:57:11.007Z,96081
2015-09-19T03:57:29.588Z,96089
2015-09-19T03:57:48.056Z,96081
2015-09-19T03:58:06.650Z,96097
2015-09-19T03:58:25.090Z,96081